Time;durP1;ratioP1;P1;durP2;ratioP2;P2;SDS_P1;SDS_P2;PMS_P1;PMS_P2;Temp;Humidity;BMP_temperature;BMP_pressure;BME280_temperature;BME280_humidity;BME280_pressure;Samples;Min_cycle;Max_cycle;Signal;HPM_P1;HPM_P2
2023/09/17 00:00:19;;;;;;;;;25.33;23.33;;;;;22.39;66.99;100888.59;5074234;27;51764;-58
2023/09/17 00:02:45;;;;;;;;;26.00;22.00;;;;;22.39;67.56;100891.31;5083716;27;54823;-58
2023/09/17 00:05:10;;;;;;;;;23.67;21.00;;;;;22.37;67.32;100883.34;5067930;27;69612;-59
2023/09/17 00:07:35;;;;;;;;;25.00;22.00;;;;;22.35;68.05;100888.00;5075551;27;66196;-58
2023/09/17 00:10:01;;;;;;;;;24.00;22.00;;;;;22.31;67.81;100884.75;5091467;27;46056;-58
2023/09/17 00:12:26;;;;;;;;;20.67;19.00;;;;;22.29;68.08;100877.78;5091290;27;46214;-58
2023/09/17 00:14:52;;;;;;;;;24.33;20.33;;;;;22.27;67.77;100888.78;5070639;27;63931;-58
2023/09/17 00:17:18;;;;;;;;;23.00;19.67;;;;;22.26;68.05;100886.22;5067975;27;53926;-58
2023/09/17 00:19:43;;;;;;;;;23.33;22.00;;;;;22.25;68.11;100877.25;5084491;27;45586;-58
2023/09/17 00:22:11;;;;;;;;;22.67;21.00;;;;;22.24;68.02;100877.38;5091132;27;45384;-58
2023/09/17 00:24:36;;;;;;;;;21.67;20.67;;;;;22.24;68.39;100882.78;5091652;27;45212;-58
2023/09/17 00:27:02;;;;;;;;;22.33;20.67;;;;;22.21;68.11;100875.81;5097152;27;45300;-58
2023/09/17 00:29:27;;;;;;;;;23.67;20.33;;;;;22.20;68.27;100881.41;5080209;27;45559;-58
2023/09/17 00:31:53;;;;;;;;;21.33;19.00;;;;;22.18;68.88;100876.13;5085273;27;46062;-59
2023/09/17 00:34:18;;;;;;;;;20.67;20.33;;;;;22.16;68.61;100878.13;5084237;27;49605;-59
2023/09/17 00:36:43;;;;;;;;;18.00;17.00;;;;;22.12;69.14;100876.72;5082151;27;45540;-58
2023/09/17 00:39:09;;;;;;;;;26.33;23.00;;;;;22.08;69.21;100878.03;5080348;27;69441;-58
2023/09/17 00:41:35;;;;;;;;;20.67;19.33;;;;;22.05;69.39;100872.94;5097153;27;46720;-59
2023/09/17 00:44:01;;;;;;;;;29.00;23.33;;;;;22.04;68.92;100868.50;5080835;27;45541;-59
2023/09/17 00:46:26;;;;;;;;;24.33;22.00;;;;;22.06;68.69;100863.78;5094538;27;45565;-59
2023/09/17 00:48:52;;;;;;;;;22.67;21.00;;;;;22.09;69.28;100871.63;5093536;27;52070;-59
2023/09/17 00:51:18;;;;;;;;;20.00;19.00;;;;;22.07;68.62;100871.78;5069334;27;47040;-59
2023/09/17 00:53:43;;;;;;;;;20.33;17.33;;;;;22.09;68.50;100882.47;5067497;27;45395;-60
2023/09/17 00:56:09;;;;;;;;;22.33;19.67;;;;;22.09;69.10;100871.63;5078318;27;66547;-59
2023/09/17 00:58:34;;;;;;;;;17.00;17.00;;;;;22.08;69.06;100875.31;5072416;27;66960;-59
2023/09/17 01:01:00;;;;;;;;;19.00;17.00;;;;;22.06;68.92;100874.63;5075481;27;67974;-59
2023/09/17 01:03:27;;;;;;;;;18.33;18.33;;;;;22.04;68.85;100863.94;5076689;27;45562;-59
2023/09/17 01:05:53;;;;;;;;;19.00;16.00;;;;;22.05;69.00;100870.22;5078947;27;45474;-59
2023/09/17 01:08:19;;;;;;;;;19.33;19.33;;;;;22.04;69.22;100869.34;5081443;27;45330;-59
2023/09/17 01:10:46;;;;;;;;;18.33;17.00;;;;;22.03;68.88;100873.09;5069335;27;45835;-59
2023/09/17 01:13:11;;;;;;;;;16.67;16.00;;;;;22.02;68.88;100875.91;5092732;27;45403;-60
2023/09/17 01:15:38;;;;;;;;;15.00;14.67;;;;;22.02;69.19;100878.63;5075432;27;45595;-59
2023/09/17 01:18:05;;;;;;;;;18.33;14.33;;;;;21.98;69.22;100873.53;5084112;27;45680;-59
2023/09/17 01:20:55;;;;;;;;;17.67;16.00;;;;;21.97;68.76;100874.53;5080778;27;46166;-59
2023/09/17 01:23:46;;;;;;;;;17.67;17.67;;;;;21.97;69.17;100879.94;5062087;28;45925;-59
2023/09/17 01:26:26;;;;;;;;;16.67;16.67;;;;;21.94;69.26;100874.84;5076332;27;45313;-59
2023/09/17 01:28:56;;;;;;;;;18.67;18.67;;;;;21.93;69.07;100872.28;5086942;27;45522;-59
2023/09/17 01:31:22;;;;;;;;;17.67;15.67;;;;;21.92;69.05;100875.97;5085220;27;46311;-59
2023/09/17 01:33:48;;;;;;;;;14.67;13.00;;;;;21.93;69.31;100866.88;5072316;27;46209;-59
2023/09/17 01:36:21;;;;;;;;;15.67;14.33;;;;;21.91;69.24;100868.84;5068508;27;45901;-59
2023/09/17 01:38:54;;;;;;;;;21.00;15.67;;;;;21.89;69.71;100873.56;5081570;27;45424;-59
2023/09/17 01:41:19;;;;;;;;;14.67;14.67;;;;;21.86;69.80;100874.69;5070122;28;46104;-59
2023/09/17 01:43:45;;;;;;;;;16.67;15.67;;;;;21.85;69.31;100867.59;5095247;27;73161;-59
2023/09/17 01:46:11;;;;;;;;;19.67;19.33;;;;;21.85;69.82;100869.44;5091295;27;67390;-59
2023/09/17 01:48:38;;;;;;;;;15.33;15.33;;;;;21.81;70.14;100866.16;5086993;27;45340;-59
2023/09/17 01:51:05;;;;;;;;;15.67;15.67;;;;;21.78;69.85;100874.59;5096990;27;46325;-59
2023/09/17 01:53:31;;;;;;;;;14.33;13.33;;;;;21.78;69.76;100863.78;5078009;27;45365;-59
2023/09/17 01:55:57;;;;;;;;;18.00;16.00;;;;;21.78;69.81;100872.75;5070481;27;45326;-59
2023/09/17 01:58:23;;;;;;;;;14.33;12.33;;;;;21.77;69.81;100870.19;5096175;27;65146;-59
2023/09/17 02:00:52;;;;;;;;;16.33;14.00;;;;;21.76;69.98;100879.31;5080099;27;47253;-60
2023/09/17 02:03:18;;;;;;;;;17.00;16.00;;;;;21.74;70.04;100873.19;5091641;27;45748;-59
2023/09/17 02:05:43;;;;;;;;;13.00;13.00;;;;;21.73;70.17;100875.06;5089096;27;45433;-59
2023/09/17 02:08:09;;;;;;;;;14.67;13.33;;;;;21.74;70.27;100865.91;5083403;27;51523;-59
2023/09/17 02:10:34;;;;;;;;;15.67;13.33;;;;;21.71;69.61;100874.34;5092795;27;67376;-59
2023/09/17 02:12:59;;;;;;;;;18.33;16.67;;;;;21.69;71.01;100873.63;5078491;27;67965;-59
2023/09/17 02:15:24;;;;;;;;;13.00;13.00;;;;;21.64;70.17;100860.56;5084418;27;46161;-59
2023/09/17 02:17:51;;;;;;;;;16.00;15.33;;;;;21.66;70.73;100859.56;5095751;27;66710;-59
2023/09/17 02:20:16;;;;;;;;;16.67;14.67;;;;;21.66;70.26;100859.56;5086112;27;47467;-59
2023/09/17 02:22:41;;;;;;;;;16.33;13.00;;;;;21.64;70.64;100859.69;5093438;27;45769;-59
2023/09/17 02:25:07;;;;;;;;;13.67;13.67;;;;;21.62;70.54;100853.59;5093497;27;63890;-59
2023/09/17 02:27:33;;;;;;;;;17.00;15.00;;;;;21.62;70.30;100856.28;5092940;27;45407;-59
2023/09/17 02:29:59;;;;;;;;;14.67;14.67;;;;;21.62;69.93;100849.00;5087166;27;46299;-59
2023/09/17 02:32:24;;;;;;;;;15.67;15.00;;;;;21.63;70.20;100844.47;5092681;27;45326;-59
2023/09/17 02:34:50;;;;;;;;;14.00;13.00;;;;;21.62;70.31;100840.06;5086041;27;45263;-59
2023/09/17 02:37:15;;;;;;;;;13.00;12.00;;;;;21.63;70.43;100845.31;5097612;27;67355;-60
2023/09/17 02:39:41;;;;;;;;;13.67;13.67;;;;;21.61;70.40;100847.31;5081903;27;46053;-60
2023/09/17 02:42:06;;;;;;;;;14.33;14.00;;;;;21.61;70.24;100844.59;5099186;27;45351;-59
2023/09/17 02:44:31;;;;;;;;;16.33;12.67;;;;;21.63;70.32;100845.31;5093508;27;45571;-59
2023/09/17 02:46:57;;;;;;;;;19.00;14.33;;;;;21.62;70.54;100840.91;5082143;27;66736;-59
2023/09/17 02:49:22;;;;;;;;;16.00;15.00;;;;;21.61;70.12;100838.34;5088202;27;45523;-59
2023/09/17 02:51:50;;;;;;;;;14.67;13.67;;;;;21.63;70.80;100844.47;5080822;27;45398;-60
2023/09/17 02:54:15;;;;;;;;;16.00;15.33;;;;;21.61;70.78;100851.88;5083019;27;45357;-60
2023/09/17 02:56:42;;;;;;;;;14.00;14.00;;;;;21.59;70.93;100845.75;5078380;27;70206;-59
2023/09/17 02:59:07;;;;;;;;;17.33;15.33;;;;;21.56;70.60;100848.75;5087613;27;46143;-59
2023/09/17 03:01:32;;;;;;;;;14.33;14.00;;;;;21.54;70.88;100838.09;5093726;27;45324;-60
2023/09/17 03:03:58;;;;;;;;;16.00;14.33;;;;;21.53;70.94;100838.19;5092943;27;65048;-60
2023/09/17 03:06:23;;;;;;;;;20.00;15.33;;;;;21.52;71.17;100842.75;5096081;27;45308;-59
2023/09/17 03:08:48;;;;;;;;;13.67;13.00;;;;;21.51;70.54;100841.06;5093049;27;70696;-59
2023/09/17 03:11:17;;;;;;;;;10.67;10.00;;;;;21.51;70.59;100845.59;5079052;27;69417;-60
2023/09/17 03:13:44;;;;;;;;;11.00;11.00;;;;;21.51;71.21;100851.88;5092302;27;45300;-59
2023/09/17 03:16:12;;;;;;;;;15.00;14.00;;;;;21.50;71.01;100842.06;5093013;27;45695;-59
2023/09/17 03:18:38;;;;;;;;;12.67;12.67;;;;;21.51;70.67;100845.59;5077186;27;46275;-59
2023/09/17 03:21:06;;;;;;;;;13.00;12.67;;;;;21.54;70.60;100848.03;5093481;27;45505;-59
2023/09/17 03:23:32;;;;;;;;;12.67;12.67;;;;;21.56;70.38;100844.22;5092973;27;64587;-59
2023/09/17 03:26:00;;;;;;;;;14.00;12.00;;;;;21.58;70.64;100827.81;5088607;27;45453;-59
2023/09/17 03:28:25;;;;;;;;;11.00;11.00;;;;;21.60;70.67;100837.50;5090003;27;46941;-60
2023/09/17 03:30:51;;;;;;;;;14.67;12.67;;;;;21.57;71.01;100829.66;5094091;27;45430;-59
2023/09/17 03:33:16;;;;;;;;;11.67;11.33;;;;;21.51;71.08;100830.25;5093302;27;66707;-59
2023/09/17 03:35:41;;;;;;;;;13.33;12.00;;;;;21.47;70.68;100839.63;5079792;27;45430;-59
2023/09/17 03:38:07;;;;;;;;;11.33;10.00;;;;;21.47;70.97;100836.91;5091564;27;73154;-59
2023/09/17 03:40:33;;;;;;;;;11.67;8.33;;;;;21.47;70.91;100823.38;5088700;27;45389;-59
2023/09/17 03:42:58;;;;;;;;;12.33;10.67;;;;;21.45;70.83;100825.41;5068189;27;45345;-59
2023/09/17 03:45:24;;;;;;;;;9.33;9.33;;;;;21.43;70.64;100824.69;5094751;27;64298;-60
2023/09/17 03:47:49;;;;;;;;;9.00;8.33;;;;;21.44;70.55;100827.25;5091310;27;70980;-60
2023/09/17 03:50:16;;;;;;;;;11.67;10.33;;;;;21.46;70.63;100827.13;5082794;27;45328;-59
2023/09/17 03:52:45;;;;;;;;;12.67;10.00;;;;;21.46;70.58;100829.81;5086455;27;45355;-59
2023/09/17 03:55:11;;;;;;;;;13.67;11.00;;;;;21.46;70.58;100827.97;5084777;27;45399;-59
2023/09/17 03:57:37;;;;;;;;;6.33;5.33;;;;;21.47;70.59;100823.38;5076952;27;46469;-59
2023/09/17 04:00:07;;;;;;;;;11.67;11.67;;;;;21.46;71.08;100817.13;5091752;27;45296;-59
2023/09/17 04:02:36;;;;;;;;;13.00;12.33;;;;;21.46;70.86;100832.53;5090810;27;45536;-59
2023/09/17 04:05:08;;;;;;;;;10.67;10.00;;;;;21.45;70.93;100830.81;5093042;27;45476;-59
2023/09/17 04:07:34;;;;;;;;;10.67;9.67;;;;;21.44;71.12;100823.69;5082198;27;47250;-59
2023/09/17 04:09:59;;;;;;;;;13.00;11.00;;;;;21.41;70.69;100826.72;5091680;27;58941;-59
2023/09/17 04:12:24;;;;;;;;;8.00;8.00;;;;;21.38;71.04;100830.56;5093759;27;45777;-59
2023/09/17 04:14:50;;;;;;;;;9.33;9.00;;;;;21.36;71.39;100835.25;5086880;27;69430;-59
2023/09/17 04:17:16;;;;;;;;;10.00;10.00;;;;;21.32;71.03;100823.88;5083741;27;46213;-60
2023/09/17 04:19:41;;;;;;;;;12.33;10.33;;;;;21.31;71.07;100826.72;5091187;27;65515;-59
2023/09/17 04:22:07;;;;;;;;;9.00;9.00;;;;;21.29;71.39;100828.72;5088416;27;49507;-59
2023/09/17 04:24:32;;;;;;;;;10.33;9.00;;;;;21.24;71.72;100831.88;5098566;27;45465;-60
2023/09/17 04:26:57;;;;;;;;;11.00;10.00;;;;;21.19;71.42;100834.16;5093672;27;74334;-59
2023/09/17 04:29:23;;;;;;;;;8.67;7.67;;;;;21.18;71.99;100837.84;5094396;27;46342;-59
2023/09/17 04:31:49;;;;;;;;;11.00;9.00;;;;;21.18;71.59;100821.63;5101119;27;45417;-59
2023/09/17 04:34:15;;;;;;;;;9.00;8.67;;;;;21.14;71.81;100825.63;5091845;27;45393;-58
2023/09/17 04:36:40;;;;;;;;;10.33;9.00;;;;;21.11;72.19;100824.06;5087650;27;55895;-58
2023/09/17 04:39:09;;;;;;;;;8.67;8.67;;;;;21.07;71.83;100824.50;5075037;27;45374;-58
2023/09/17 04:41:34;;;;;;;;;9.67;8.67;;;;;21.04;72.40;100819.38;5089172;27;45449;-58
2023/09/17 04:44:00;;;;;;;;;14.00;10.33;;;;;20.99;71.98;100815.25;5086862;27;67230;-58
2023/09/17 04:46:26;;;;;;;;;7.00;7.00;;;;;20.96;71.94;100814.69;5081069;27;47010;-58
2023/09/17 04:48:51;;;;;;;;;7.67;7.00;;;;;20.93;71.87;100809.56;5083650;27;45366;-58
2023/09/17 04:51:16;;;;;;;;;8.67;7.67;;;;;20.92;72.36;100813.28;5089232;27;66900;-58
2023/09/17 04:53:42;;;;;;;;;9.00;9.00;;;;;20.91;72.59;100833.19;5068928;28;45502;-58
2023/09/17 04:56:08;;;;;;;;;8.00;6.33;;;;;20.89;72.66;100830.63;5087041;27;45495;-58
2023/09/17 04:58:33;;;;;;;;;9.00;8.00;;;;;20.89;73.02;100827.94;5080540;27;45450;-58
2023/09/17 05:00:59;;;;;;;;;9.00;8.33;;;;;20.90;73.14;100831.47;5069253;27;45492;-58
2023/09/17 05:03:24;;;;;;;;;9.67;8.33;;;;;20.89;72.78;100829.78;5072870;27;68261;-58
2023/09/17 05:05:49;;;;;;;;;8.00;8.00;;;;;20.88;72.55;100831.63;5096373;27;46099;-58
2023/09/17 05:08:16;;;;;;;;;7.00;6.00;;;;;20.88;73.03;100830.78;5094285;27;68341;-58
2023/09/17 05:10:42;;;;;;;;;11.67;8.33;;;;;20.85;73.37;100829.22;5092834;27;45271;-58
2023/09/17 05:13:08;;;;;;;;;9.00;9.00;;;;;20.85;73.24;100833.78;5086508;27;45345;-58
2023/09/17 05:15:34;;;;;;;;;10.00;7.33;;;;;20.82;72.99;100826.81;5087348;27;45572;-58
2023/09/17 05:18:00;;;;;;;;;7.67;7.67;;;;;20.80;73.15;100826.94;5076793;27;46211;-58
2023/09/17 05:20:25;;;;;;;;;10.00;9.00;;;;;20.77;73.47;100819.13;5091184;27;45478;-58
2023/09/17 05:22:50;;;;;;;;;8.00;7.00;;;;;20.76;73.75;100824.66;5080135;27;57580;-58
2023/09/17 05:25:16;;;;;;;;;3.00;2.50;;;;;20.73;73.31;100827.63;5084862;27;73124;-58
2023/09/17 05:27:41;;;;;;;;;8.00;7.33;;;;;20.72;73.72;100829.50;5087717;27;45427;-62
2023/09/17 05:30:08;;;;;;;;;8.00;8.00;;;;;20.71;73.88;100837.75;5086732;27;68463;-61
2023/09/17 05:32:33;;;;;;;;;8.33;8.00;;;;;20.70;73.48;100838.75;5086034;27;45516;-62
2023/09/17 05:34:59;;;;;;;;;6.00;6.00;;;;;20.67;73.57;100835.28;5083761;27;45406;-62
2023/09/17 05:37:25;;;;;;;;;7.67;7.67;;;;;20.66;73.64;100836.31;5083027;27;45489;-62
2023/09/17 05:39:51;;;;;;;;;7.33;7.33;;;;;20.66;74.15;100830.91;5081916;27;45542;-62
2023/09/17 05:42:16;;;;;;;;;7.00;7.00;;;;;20.67;74.36;100816.38;5092096;27;45383;-62
2023/09/17 05:44:42;;;;;;;;;8.00;8.00;;;;;20.69;74.29;100823.47;5080565;27;75643;-62
2023/09/17 05:47:07;;;;;;;;;7.67;7.67;;;;;20.69;74.25;100824.34;5091423;27;45296;-62
2023/09/17 05:49:32;;;;;;;;;7.00;7.00;;;;;20.72;74.08;100820.56;5090941;27;62528;-62
2023/09/17 05:51:59;;;;;;;;;6.67;6.67;;;;;20.74;73.97;100829.34;5090053;27;45410;-61
2023/09/17 05:54:25;;;;;;;;;7.33;7.33;;;;;20.76;74.10;100830.06;5093460;27;46085;-62
2023/09/17 05:56:50;;;;;;;;;6.00;6.00;;;;;20.79;74.05;100819.84;5096300;27;45504;-61
2023/09/17 05:59:17;;;;;;;;;9.00;8.00;;;;;20.84;74.01;100826.66;5096108;27;45568;-62
2023/09/17 06:01:42;;;;;;;;;8.00;8.00;;;;;20.88;73.97;100823.50;5099884;27;45405;-61
2023/09/17 06:04:08;;;;;;;;;9.67;7.33;;;;;20.90;73.69;100818.81;5081396;27;45352;-61
2023/09/17 06:06:33;;;;;;;;;7.00;7.00;;;;;20.91;73.70;100820.53;5091288;27;45385;-61
2023/09/17 06:08:58;;;;;;;;;7.00;7.00;;;;;20.91;73.81;100817.84;5095015;27;45370;-62
2023/09/17 06:11:24;;;;;;;;;7.67;7.67;;;;;20.90;73.96;100816.13;5078636;27;69950;-62
2023/09/17 06:13:49;;;;;;;;;8.00;6.33;;;;;20.91;73.75;100811.56;5081933;27;71908;-62
2023/09/17 06:16:15;;;;;;;;;7.00;7.00;;;;;20.92;73.69;100811.41;5078255;27;73375;-63
2023/09/17 06:18:40;;;;;;;;;6.67;6.67;;;;;20.96;73.78;100814.69;5089095;27;45366;-62
2023/09/17 06:21:05;;;;;;;;;2.00;2.00;;;;;20.98;73.54;100812.69;5077411;27;55543;-62
2023/09/17 06:23:31;;;;;;;;;7.67;7.67;;;;;21.00;73.83;100810.69;5094292;27;66166;-61
2023/09/17 06:25:56;;;;;;;;;8.67;7.00;;;;;21.05;73.37;100821.94;5095588;27;71857;-62
2023/09/17 06:28:21;;;;;;;;;9.33;8.67;;;;;21.11;73.47;100836.75;5080304;27;45726;-62
2023/09/17 06:30:48;;;;;;;;;9.00;9.00;;;;;21.23;73.32;100842.84;5082930;27;45825;-63
2023/09/17 06:33:13;;;;;;;;;10.00;8.33;;;;;21.41;73.05;100832.97;5078934;27;47198;-62
2023/09/17 06:35:39;;;;;;;;;6.33;5.67;;;;;21.73;73.04;100828.19;5097009;27;45282;-61
2023/09/17 06:38:04;;;;;;;;;7.00;7.00;;;;;22.03;71.87;100837.88;5092969;27;50868;-61
2023/09/17 06:40:29;;;;;;;;;7.00;7.00;;;;;22.20;70.97;100838.06;5086982;27;69110;-62
2023/09/17 06:42:55;;;;;;;;;7.67;7.33;;;;;22.27;70.65;100837.28;5091427;27;69415;-61
2023/09/17 06:45:20;;;;;;;;;8.67;8.00;;;;;22.26;70.26;100830.16;5090609;27;70215;-62
2023/09/17 06:47:46;;;;;;;;;8.00;8.00;;;;;22.20;70.29;100833.50;5076502;27;68060;-61
2023/09/17 06:50:13;;;;;;;;;8.00;8.00;;;;;22.12;70.37;100834.25;5092534;27;45563;-62
2023/09/17 06:52:38;;;;;;;;;7.33;7.33;;;;;22.07;69.89;100831.16;5071549;27;46243;-61
2023/09/17 06:55:04;;;;;;;;;11.33;10.00;;;;;22.02;70.38;100830.75;5088505;27;45445;-61
2023/09/17 06:57:30;;;;;;;;;6.00;6.00;;;;;22.01;70.44;100833.63;5089545;27;45597;-61
2023/09/17 06:59:55;;;;;;;;;7.33;7.33;;;;;21.98;70.10;100830.19;5089157;27;45470;-61
2023/09/17 07:02:21;;;;;;;;;9.00;8.33;;;;;21.95;70.63;100829.63;5078531;27;71702;-63
2023/09/17 07:04:46;;;;;;;;;8.67;6.33;;;;;21.92;70.06;100833.50;5091271;27;45625;-62
2023/09/17 07:07:11;;;;;;;;;7.67;7.67;;;;;21.89;70.34;100836.53;5085288;27;45617;-62
2023/09/17 07:09:37;;;;;;;;;7.00;6.00;;;;;21.88;70.50;100837.50;5090110;27;68864;-61
2023/09/17 07:12:02;;;;;;;;;7.00;7.00;;;;;21.86;70.48;100834.09;5086304;27;73102;-63
2023/09/17 07:14:28;;;;;;;;;8.33;8.33;;;;;21.87;70.67;100840.38;5080843;27;45343;-62
2023/09/17 07:16:53;;;;;;;;;8.00;8.00;;;;;21.86;70.50;100841.38;5082435;27;45524;-63
2023/09/17 07:19:19;;;;;;;;;8.00;6.00;;;;;21.87;70.87;100834.97;5083144;27;68755;-62
2023/09/17 07:21:44;;;;;;;;;8.33;7.00;;;;;21.88;70.94;100832.09;5090669;27;51457;-61
2023/09/17 07:24:10;;;;;;;;;7.67;6.67;;;;;21.91;71.08;100833.66;5089017;27;45359;-61
2023/09/17 07:26:35;;;;;;;;;5.00;5.00;;;;;21.91;71.07;100820.97;5083779;27;45368;-61
2023/09/17 07:29:03;;;;;;;;;6.67;6.67;;;;;21.92;70.97;100832.66;5080734;27;69671;-61
2023/09/17 07:31:28;;;;;;;;;7.67;6.00;;;;;21.92;70.65;100828.09;5093928;27;46214;-61
2023/09/17 07:33:54;;;;;;;;;7.67;6.67;;;;;21.92;70.60;100825.38;5090916;27;45432;-62
2023/09/17 07:36:20;;;;;;;;;6.00;5.33;;;;;21.92;70.39;100825.38;5093809;27;45369;-61
2023/09/17 07:38:45;;;;;;;;;7.67;5.00;;;;;21.93;70.21;100829.81;5081548;27;45426;-60
2023/09/17 07:41:11;;;;;;;;;5.00;5.00;;;;;21.94;70.15;100834.22;5093011;27;46293;-61
2023/09/17 07:43:36;;;;;;;;;7.33;6.00;;;;;21.97;70.16;100833.91;5091392;27;45393;-60
2023/09/17 07:46:01;;;;;;;;;4.00;4.00;;;;;22.02;69.85;100844.28;5089957;27;45313;-61
2023/09/17 07:48:29;;;;;;;;;6.00;6.00;;;;;22.07;69.87;100841.13;5080885;27;67159;-61
2023/09/17 07:50:56;;;;;;;;;6.00;4.33;;;;;22.13;69.54;100837.81;5094411;27;46189;-60
2023/09/17 07:53:21;;;;;;;;;5.00;4.00;;;;;22.21;69.79;100842.47;5092438;27;45296;-61
2023/09/17 07:55:46;;;;;;;;;5.33;5.00;;;;;22.27;69.31;100833.75;5085608;27;69654;-61
2023/09/17 07:58:12;;;;;;;;;5.33;5.00;;;;;22.36;69.47;100834.69;5088819;27;65905;-61
2023/09/17 08:00:37;;;;;;;;;4.67;4.00;;;;;22.45;69.42;100834.66;5089447;27;74189;-61
2023/09/17 08:03:03;;;;;;;;;3.33;3.33;;;;;22.58;69.16;100836.97;5102298;27;47804;-61
2023/09/17 08:05:29;;;;;;;;;6.00;3.67;;;;;22.74;69.06;100838.97;5096359;27;45554;-61
2023/09/17 08:07:54;;;;;;;;;5.00;5.00;;;;;22.93;68.64;100837.09;5100282;27;69773;-61
2023/09/17 08:10:20;;;;;;;;;3.75;3.75;;;;;23.16;68.29;100839.38;5098395;27;74813;-62
2023/09/17 08:12:45;;;;;;;;;3.67;3.33;;;;;23.35;67.55;100841.88;5102149;27;45441;-63
2023/09/17 08:15:11;;;;;;;;;3.67;3.67;;;;;23.55;67.62;100847.91;5088678;27;68624;-62
2023/09/17 08:17:36;;;;;;;;;4.00;4.00;;;;;23.78;66.90;100863.66;5091800;27;59052;-62
2023/09/17 08:20:02;;;;;;;;;3.50;3.25;;;;;23.87;65.46;100884.41;5093106;27;46783;-62
2023/09/17 08:22:29;;;;;;;;;7.00;4.00;;;;;23.85;65.00;100875.56;5082524;27;45295;-63
2023/09/17 08:24:54;;;;;;;;;4.00;4.00;;;;;23.91;65.54;100874.97;5090330;27;45805;-61
2023/09/17 08:27:19;;;;;;;;;4.67;4.67;;;;;23.91;64.98;100874.97;5087809;27;63724;-62
2023/09/17 08:29:45;;;;;;;;;4.67;4.67;;;;;23.89;64.55;100874.22;5092012;27;67731;-54
2023/09/17 08:32:11;;;;;;;;;4.00;4.00;;;;;23.80;63.40;100867.06;5088178;27;45414;-58
2023/09/17 08:34:36;;;;;;;;;5.00;5.00;;;;;23.67;64.48;100863.94;5090438;27;45522;-57
2023/09/17 08:37:04;;;;;;;;;5.00;4.00;;;;;23.61;64.54;100855.44;5086254;27;45446;-55
2023/09/17 08:39:30;;;;;;;;;3.33;2.00;;;;;23.55;64.96;100850.63;5085050;27;46267;-57
2023/09/17 08:41:55;;;;;;;;;5.00;3.25;;;;;23.54;64.63;100861.66;5067418;27;45585;-58
2023/09/17 08:44:21;;;;;;;;;6.67;5.00;;;;;23.49;64.15;100856.69;5058533;27;45344;-58
2023/09/17 08:46:47;;;;;;;;;4.00;4.00;;;;;23.45;64.91;100858.03;5080641;27;64557;-58
2023/09/17 08:49:12;;;;;;;;;3.33;3.00;;;;;23.45;64.43;100853.47;5079236;27;45914;-57
2023/09/17 08:51:41;;;;;;;;;3.33;3.33;;;;;23.48;64.34;100846.88;5088811;27;45169;-59
2023/09/17 08:54:31;;;;;;;;;4.00;4.00;;;;;23.52;64.91;100853.69;5091185;27;45614;-57
2023/09/17 08:56:58;;;;;;;;;3.00;3.00;;;;;23.56;64.47;100837.94;5088468;27;45517;-57
2023/09/17 08:59:29;;;;;;;;;3.75;3.00;;;;;23.60;64.79;100840.16;5085746;27;45205;-57
2023/09/17 09:01:56;;;;;;;;;5.00;5.00;;;;;23.64;64.58;100839.84;5068934;27;46699;-58
2023/09/17 09:04:22;;;;;;;;;6.00;4.25;;;;;23.65;64.30;100846.94;5087935;27;45523;-57
2023/09/17 09:06:48;;;;;;;;;2.00;2.00;;;;;23.67;64.11;100853.91;5067351;27;64075;-58
2023/09/17 09:09:15;;;;;;;;;3.25;3.25;;;;;23.65;63.85;100857.81;5080217;27;46701;-58
2023/09/17 09:11:40;;;;;;;;;4.33;4.33;;;;;23.61;63.83;100862.72;5085755;27;45485;-58
2023/09/17 09:14:06;;;;;;;;;4.00;4.00;;;;;23.58;63.67;100860.31;5080080;27;69664;-58
2023/09/17 09:16:38;;;;;;;;;4.00;4.00;;;;;23.50;63.86;100861.13;5092177;27;45515;-58
2023/09/17 09:19:05;;;;;;;;;3.50;3.50;;;;;23.53;63.69;100847.25;5086493;27;46596;-57
2023/09/17 09:21:30;;;;;;;;;4.00;4.00;;;;;23.75;64.62;100832.25;5072896;28;45458;-58
2023/09/17 09:23:59;;;;;;;;;4.00;4.00;;;;;24.18;63.79;100832.25;5078090;27;45338;-58
2023/09/17 09:26:36;;;;;;;;;4.75;4.75;;;;;24.56;62.11;100849.03;5091164;27;46391;-58
2023/09/17 09:29:02;;;;;;;;;4.50;4.50;;;;;24.79;61.51;100850.25;5082753;27;45966;-58
2023/09/17 09:31:29;;;;;;;;;3.50;3.50;;;;;24.89;61.77;100843.63;5078982;27;45493;-58
2023/09/17 09:33:59;;;;;;;;;4.00;4.00;;;;;25.00;61.14;100842.44;5081367;27;45682;-57
2023/09/17 09:36:27;;;;;;;;;4.00;4.00;;;;;25.11;61.42;100835.81;5084442;27;45322;-58
2023/09/17 09:38:53;;;;;;;;;5.75;4.00;;;;;25.14;60.37;100837.34;5065805;28;47002;-57
2023/09/17 09:41:19;;;;;;;;;3.75;3.75;;;;;25.07;60.01;100834.44;5068673;27;45464;-59
2023/09/17 09:43:44;;;;;;;;;4.25;4.25;;;;;25.05;60.56;100842.78;5098378;27;68247;-58
2023/09/17 09:46:09;;;;;;;;;4.75;4.75;;;;;25.20;60.62;100831.19;5072350;27;63593;-58
2023/09/17 09:48:39;;;;;;;;;6.67;4.67;;;;;25.51;59.99;100827.78;5090606;27;70925;-58
2023/09/17 09:51:04;;;;;;;;;5.33;5.00;;;;;25.85;57.26;100826.63;5094446;27;45705;-58
2023/09/17 09:53:30;;;;;;;;;4.75;4.75;;;;;26.13;56.56;100832.50;5086422;27;45434;-58
2023/09/17 09:55:56;;;;;;;;;6.00;4.25;;;;;26.39;57.39;100834.06;5080196;27;45600;-59
2023/09/17 09:58:21;;;;;;;;;4.50;3.00;;;;;26.60;56.33;100825.22;5062513;27;46485;-58
2023/09/17 10:00:47;;;;;;;;;5.75;4.25;;;;;26.75;56.53;100822.56;5067168;27;60501;-58
2023/09/17 10:03:22;;;;;;;;;6.00;6.00;;;;;26.84;56.13;100820.63;5064047;28;45445;-58
2023/09/17 10:05:48;;;;;;;;;6.00;5.00;;;;;26.94;55.60;100801.28;5073025;27;45224;-58
2023/09/17 10:08:17;;;;;;;;;4.75;4.75;;;;;27.02;55.76;100791.13;5092583;27;46904;-58
2023/09/17 10:10:42;;;;;;;;;4.50;4.00;;;;;27.08;55.38;100778.63;5087392;27;45553;-57
2023/09/17 10:13:10;;;;;;;;;2.50;1.25;;;;;27.15;54.77;100774.09;5093349;27;45532;-57
2023/09/17 10:15:36;;;;;;;;;4.00;4.00;;;;;27.21;54.12;100786.19;5093759;27;45500;-56
2023/09/17 10:18:04;;;;;;;;;3.75;3.75;;;;;27.23;54.70;100786.81;5090561;27;45516;-57
2023/09/17 10:20:30;;;;;;;;;6.00;6.00;;;;;27.30;54.34;100782.31;5073829;27;45935;-57
2023/09/17 10:22:57;;;;;;;;;6.25;5.25;;;;;27.35;54.23;100785.34;5083368;27;45403;-57
2023/09/17 10:25:23;;;;;;;;;4.50;4.25;;;;;27.36;53.82;100781.56;5070707;27;45394;-57
2023/09/17 10:27:50;;;;;;;;;8.50;7.25;;;;;27.33;53.18;100772.91;5095023;27;45354;-57
2023/09/17 10:30:17;;;;;;;;;6.25;5.25;;;;;27.26;53.57;100766.50;5067630;27;45390;-57
2023/09/17 10:32:44;;;;;;;;;4.25;4.25;;;;;27.15;53.37;100765.91;5072367;27;45706;-57
2023/09/17 10:35:11;;;;;;;;;4.00;4.00;;;;;27.08;53.01;100765.81;5091620;27;45393;-57
2023/09/17 10:37:37;;;;;;;;;4.50;4.50;;;;;26.97;53.73;100759.97;5080823;27;46150;-57
2023/09/17 10:40:08;;;;;;;;;9.25;7.00;;;;;26.81;53.13;100753.63;5079212;27;45490;-57
2023/09/17 10:42:34;;;;;;;;;8.25;5.75;;;;;26.68;53.63;100748.78;5080148;27;45451;-57
2023/09/17 10:45:03;;;;;;;;;6.33;5.33;;;;;26.63;53.89;100751.22;5078009;28;45169;-58
2023/09/17 10:47:30;;;;;;;;;4.33;3.00;;;;;26.54;53.97;100755.91;5071182;27;46001;-57
2023/09/17 10:49:56;;;;;;;;;4.50;4.25;;;;;26.50;54.07;100751.81;5066482;27;45474;-57
2023/09/17 10:52:22;;;;;;;;;7.00;7.00;;;;;26.47;54.20;100756.81;5083808;27;46784;-61
2023/09/17 10:54:47;;;;;;;;;5.00;5.00;;;;;26.36;54.52;100749.88;5070949;27;45524;-60
2023/09/17 10:57:21;;;;;;;;;6.50;6.50;;;;;26.35;54.57;100748.22;5086892;27;46956;-59
2023/09/17 10:59:47;;;;;;;;;8.33;8.33;;;;;26.37;54.48;100737.97;5068699;27;45477;-59
2023/09/17 11:02:14;;;;;;;;;8.25;7.75;;;;;26.32;54.72;100745.84;5082901;27;59312;-59
2023/09/17 11:04:40;;;;;;;;;6.75;6.75;;;;;26.31;55.32;100744.13;5072365;27;45343;-59
2023/09/17 11:07:07;;;;;;;;;6.33;5.00;;;;;26.31;55.43;100750.44;5069688;27;46151;-59
2023/09/17 11:09:32;;;;;;;;;7.67;7.67;;;;;26.29;54.64;100757.94;5083796;27;45324;-60
2023/09/17 11:11:58;;;;;;;;;9.33;7.67;;;;;26.21;55.33;100752.56;5078796;27;45442;-59
2023/09/17 11:14:23;;;;;;;;;10.00;9.00;;;;;26.18;54.92;100751.06;5060100;28;70560;-59